createdAt,value
2018-01-28T00:02:03.207Z,4.33
2018-01-28T00:04:38.306Z,4.40
2018-01-28T00:07:13.285Z,5.03
2018-01-28T00:09:48.458Z,6.07
2018-01-28T00:12:23.433Z,4.20
2018-01-28T00:14:58.589Z,4.70
2018-01-28T00:17:33.508Z,5.40
2018-01-28T00:20:08.698Z,4.83
2018-01-28T00:22:43.702Z,4.87
2018-01-28T00:25:19.221Z,4.60
2018-01-28T00:27:54.216Z,5.63
2018-01-28T00:30:29.421Z,5.25
2018-01-28T00:33:04.344Z,5.33
2018-01-28T00:35:38.712Z,7.32
2018-01-28T00:38:14.299Z,7.80
2018-01-28T00:40:49.242Z,5.12
2018-01-28T00:43:24.479Z,7.13
2018-01-28T00:45:59.475Z,7.40
2018-01-28T00:48:34.129Z,5.30
2018-01-28T00:51:09.285Z,5.20
2018-01-28T00:53:44.085Z,6.70
2018-01-28T00:56:18.795Z,4.68
2018-01-28T00:58:54.417Z,7.13
2018-01-28T01:01:29.752Z,7.20
2018-01-28T01:04:04.924Z,5.37
2018-01-28T01:06:40.265Z,7.50
2018-01-28T01:09:15.006Z,5.57
2018-01-28T01:11:50.365Z,7.87
2018-01-28T01:14:25.256Z,6.97
2018-01-28T01:17:00.264Z,4.43
2018-01-28T01:19:35.424Z,6.60
2018-01-28T01:22:10.283Z,7.50
2018-01-28T01:24:45.248Z,4.73
2018-01-28T01:27:21.609Z,7.57
2018-01-28T01:29:56.626Z,4.50
2018-01-28T01:32:31.450Z,7.37
2018-01-28T01:35:06.304Z,6.10
2018-01-28T01:37:41.409Z,7.23
2018-01-28T01:40:16.240Z,5.93
2018-01-28T01:42:51.173Z,4.65
2018-01-28T01:45:25.279Z,6.90
2018-01-28T01:48:00.503Z,5.00
2018-01-28T01:50:35.583Z,8.27
2018-01-28T01:53:10.857Z,5.60
2018-01-28T01:55:45.860Z,8.33
2018-01-28T01:58:21.973Z,8.45
2018-01-28T02:00:57.049Z,6.57
2018-01-28T02:03:32.608Z,3.95
2018-01-28T02:06:07.175Z,7.17
2018-01-28T02:08:42.419Z,4.47
2018-01-28T02:11:17.719Z,5.07
2018-01-28T02:13:52.997Z,5.15
2018-01-28T02:16:28.183Z,4.50
2018-01-28T02:19:03.518Z,5.53
2018-01-28T02:21:38.693Z,3.58
2018-01-28T02:24:13.601Z,5.70
2018-01-28T02:26:48.533Z,7.57
2018-01-28T02:29:23.733Z,4.93
2018-01-28T02:31:58.519Z,6.07
2018-01-28T02:34:33.822Z,6.43
2018-01-28T02:37:08.989Z,7.17
2018-01-28T02:39:43.876Z,5.97
2018-01-28T02:42:19.089Z,5.53
2018-01-28T02:44:53.847Z,4.93
2018-01-28T02:47:28.958Z,5.40
2018-01-28T02:50:04.158Z,7.13
2018-01-28T02:52:39.634Z,8.27
2018-01-28T02:55:14.589Z,7.00
2018-01-28T02:57:49.697Z,7.90
2018-01-28T03:00:24.048Z,8.57
2018-01-28T03:02:58.920Z,7.13
2018-01-28T03:05:33.627Z,5.13
2018-01-28T03:08:08.405Z,6.70
2018-01-28T03:10:43.590Z,8.60
2018-01-28T03:13:18.675Z,5.27
2018-01-28T03:15:53.940Z,8.17
2018-01-28T03:18:28.932Z,8.97
2018-01-28T03:21:04.128Z,8.77
2018-01-28T03:23:39.112Z,8.48
2018-01-28T03:26:14.756Z,8.65
2018-01-28T03:28:49.772Z,8.50
2018-01-28T03:31:24.544Z,9.40
2018-01-28T03:33:59.132Z,7.53
2018-01-28T03:36:34.336Z,7.15
2018-01-28T03:39:09.440Z,5.60
2018-01-28T03:41:44.629Z,5.30
2018-01-28T03:44:19.816Z,9.57
2018-01-28T03:46:54.157Z,5.60
2018-01-28T03:49:29.903Z,6.87
2018-01-28T03:52:04.340Z,9.10
2018-01-28T03:54:39.612Z,9.07
2018-01-28T03:57:14.875Z,8.93
2018-01-28T03:59:50.088Z,8.47
2018-01-28T04:02:25.839Z,6.12
2018-01-28T04:05:00.768Z,8.77
2018-01-28T04:07:35.808Z,6.60
2018-01-28T04:10:11.107Z,9.77
2018-01-28T04:12:46.644Z,10.10
2018-01-28T04:15:22.057Z,7.30
2018-01-28T04:17:56.792Z,7.30
2018-01-28T04:20:31.957Z,7.82
2018-01-28T04:23:06.818Z,8.90
2018-01-28T04:25:41.842Z,9.90
2018-01-28T04:28:17.137Z,10.00
2018-01-28T04:30:52.217Z,11.80
2018-01-28T04:33:27.737Z,11.97
2018-01-28T04:36:02.828Z,12.80
2018-01-28T04:38:38.163Z,10.82
2018-01-28T04:41:12.553Z,9.00
2018-01-28T04:43:47.375Z,13.57
2018-01-28T04:46:22.735Z,10.87
2018-01-28T04:48:57.700Z,9.77
2018-01-28T04:51:33.300Z,12.23
2018-01-28T04:54:08.101Z,6.70
2018-01-28T04:56:43.687Z,11.25
2018-01-28T04:59:18.404Z,9.73
2018-01-28T05:01:54.974Z,13.15
2018-01-28T05:04:29.172Z,15.23
2018-01-28T05:07:04.075Z,14.40
2018-01-28T05:09:39.071Z,14.60
2018-01-28T05:12:14.202Z,12.73
2018-01-28T05:14:49.341Z,15.30
2018-01-28T05:17:24.199Z,14.20
2018-01-28T05:19:58.835Z,13.50
2018-01-28T05:22:33.143Z,13.30
2018-01-28T05:25:08.208Z,15.07
2018-01-28T05:27:43.237Z,15.87
2018-01-28T05:30:18.251Z,13.60
2018-01-28T05:32:53.197Z,13.00
2018-01-28T05:35:28.192Z,17.55
2018-01-28T05:38:03.474Z,11.70
2018-01-28T05:40:38.521Z,17.23
2018-01-28T05:43:13.017Z,15.80
2018-01-28T05:45:48.287Z,15.77
2018-01-28T05:48:23.503Z,15.60
2018-01-28T05:50:58.583Z,12.60
2018-01-28T05:53:34.158Z,14.48
2018-01-28T05:56:09.040Z,9.38
2018-01-28T05:58:44.192Z,14.60
2018-01-28T06:01:19.307Z,9.43
2018-01-28T06:03:54.476Z,8.47
2018-01-28T06:06:29.989Z,10.18
2018-01-28T06:09:04.403Z,17.33
2018-01-28T06:11:38.971Z,16.23
2018-01-28T06:14:14.331Z,16.47
2018-01-28T06:16:49.352Z,17.27
2018-01-28T06:19:24.489Z,11.33
2018-01-28T06:21:59.382Z,16.87
2018-01-28T06:24:34.397Z,13.80
2018-01-28T06:27:09.232Z,13.80
2018-01-28T06:29:44.529Z,16.83
2018-01-28T06:32:19.534Z,14.80
2018-01-28T06:34:54.817Z,16.70
2018-01-28T06:37:29.402Z,16.70
2018-01-28T06:40:03.965Z,15.70
2018-01-28T06:42:39.146Z,17.50
2018-01-28T06:45:13.411Z,14.77
2018-01-28T06:47:48.424Z,16.80
2018-01-28T06:50:24.612Z,13.27
2018-01-28T06:52:59.532Z,14.97
2018-01-28T06:55:34.727Z,15.37
2018-01-28T06:58:10.777Z,13.63
2018-01-28T07:00:48.068Z,13.73
2018-01-28T07:03:22.728Z,16.53
2018-01-28T07:05:58.115Z,14.38
2018-01-28T07:08:33.315Z,15.97
2018-01-28T07:11:08.216Z,16.17
2018-01-28T07:13:42.652Z,15.57
2018-01-28T07:16:18.198Z,15.30
2018-01-28T07:18:53.305Z,18.20
2018-01-28T07:21:28.163Z,17.55
2018-01-28T07:24:05.024Z,12.30
2018-01-28T07:26:39.975Z,13.85
2018-01-28T07:29:14.785Z,14.23
2018-01-28T07:31:50.383Z,13.60
2018-01-28T07:34:25.612Z,15.70
2018-01-28T07:37:00.429Z,18.33
2018-01-28T07:39:35.665Z,11.67
2018-01-28T07:42:10.654Z,15.60
2018-01-28T07:44:45.752Z,15.17
2018-01-28T07:47:22.277Z,17.62
2018-01-28T07:49:57.213Z,16.98
2018-01-28T07:52:32.628Z,16.25
2018-01-28T07:55:07.567Z,18.07
2018-01-28T07:57:42.092Z,18.45
2018-01-28T08:00:17.405Z,13.57
2018-01-28T08:02:52.417Z,13.40
2018-01-28T08:05:27.612Z,17.40
2018-01-28T08:08:02.136Z,13.50
2018-01-28T08:10:52.015Z,12.48
2018-01-28T08:13:32.405Z,15.46
2018-01-28T08:16:07.441Z,13.70
2018-01-28T08:18:42.341Z,14.70
2018-01-28T08:21:17.275Z,16.33
2018-01-28T08:23:52.314Z,17.10
2018-01-28T08:26:28.860Z,16.97
2018-01-28T08:29:18.509Z,19.93
2018-01-28T08:31:53.796Z,13.53
2018-01-28T08:34:28.544Z,17.73
2018-01-28T08:37:03.828Z,14.50
2018-01-28T08:39:38.952Z,14.57
2018-01-28T08:42:13.729Z,14.90
2018-01-28T08:44:48.840Z,16.57
2018-01-28T08:47:23.716Z,16.87
2018-01-28T08:49:58.818Z,16.43
2018-01-28T08:52:34.392Z,14.13
2018-01-28T08:55:09.223Z,18.57
2018-01-28T08:57:44.472Z,17.10
2018-01-28T09:00:19.567Z,16.33
2018-01-28T09:02:54.531Z,16.00
2018-01-28T09:05:29.840Z,15.00
2018-01-28T09:08:04.805Z,9.30
2018-01-28T09:10:39.792Z,16.08
2018-01-28T09:13:14.971Z,16.10
2018-01-28T09:15:49.972Z,15.83
2018-01-28T09:18:25.131Z,13.33
2018-01-28T09:21:00.573Z,11.40
2018-01-28T09:23:35.584Z,14.47
2018-01-28T09:26:10.081Z,17.00
2018-01-28T09:28:45.509Z,10.73
2018-01-28T09:31:20.504Z,13.98
2018-01-28T09:33:55.643Z,11.97
2018-01-28T09:36:30.526Z,14.60
2018-01-28T09:39:05.069Z,12.90
2018-01-28T09:41:40.308Z,15.20
2018-01-28T09:44:15.562Z,9.23
2018-01-28T09:46:50.646Z,12.50
2018-01-28T09:49:25.710Z,10.50
2018-01-28T09:52:00.217Z,11.87
2018-01-28T09:54:35.764Z,9.13
2018-01-28T09:57:10.650Z,11.13
2018-01-28T09:59:45.644Z,12.23
2018-01-28T10:02:20.828Z,12.50
2018-01-28T10:04:55.943Z,14.47
2018-01-28T10:07:30.494Z,14.98
2018-01-28T10:10:04.750Z,11.50
2018-01-28T10:12:39.239Z,10.87
2018-01-28T10:15:14.712Z,13.47
2018-01-28T10:17:49.820Z,12.80
2018-01-28T10:20:25.037Z,11.00
2018-01-28T10:22:59.707Z,11.90
2018-01-28T10:25:34.943Z,12.90
2018-01-28T10:28:09.956Z,11.87
2018-01-28T10:30:45.028Z,14.30
2018-01-28T10:33:19.806Z,10.80
2018-01-28T10:35:54.779Z,11.37
2018-01-28T10:38:30.064Z,13.47
2018-01-28T10:41:05.264Z,11.03
2018-01-28T10:43:40.327Z,11.02
2018-01-28T10:46:15.208Z,9.37
2018-01-28T10:48:50.366Z,9.63
2018-01-28T10:51:25.824Z,15.43
2018-01-28T10:54:00.869Z,13.40
2018-01-28T10:56:35.747Z,12.02
2018-01-28T10:59:10.917Z,9.90
2018-01-28T11:01:45.836Z,11.50
2018-01-28T11:04:21.127Z,11.50
2018-01-28T11:06:56.220Z,10.53
2018-01-28T11:09:31.835Z,9.82
2018-01-28T11:12:06.845Z,11.50
2018-01-28T11:14:41.897Z,17.20
2018-01-28T11:17:16.783Z,12.73
2018-01-28T11:19:51.879Z,7.83
2018-01-28T11:22:26.541Z,10.45
2018-01-28T11:25:01.632Z,10.60
2018-01-28T11:27:37.202Z,13.70
2018-01-28T11:30:11.872Z,10.60
2018-01-28T11:32:46.743Z,12.70
2018-01-28T11:35:22.887Z,11.48
2018-01-28T11:37:57.831Z,11.60
2018-01-28T11:40:32.814Z,8.85
2018-01-28T11:43:07.512Z,12.77
2018-01-28T11:45:42.307Z,8.83
2018-01-28T11:48:16.866Z,9.90
2018-01-28T11:50:51.872Z,14.93
2018-01-28T11:53:27.156Z,15.30
2018-01-28T11:56:01.957Z,11.17
2018-01-28T11:58:37.265Z,11.70
2018-01-28T12:01:12.081Z,8.87
2018-01-28T12:03:47.079Z,12.43
2018-01-28T12:06:23.368Z,12.13
2018-01-28T12:08:58.268Z,9.80
2018-01-28T12:11:33.211Z,10.82
2018-01-28T12:14:08.069Z,12.37
2018-01-28T12:16:42.874Z,12.40
2018-01-28T12:19:18.000Z,11.18
2018-01-28T12:21:52.605Z,10.47
2018-01-28T12:24:27.537Z,10.53
2018-01-28T12:27:02.433Z,10.90
2018-01-28T12:29:37.008Z,11.93
2018-01-28T12:32:11.565Z,8.47
2018-01-28T12:34:46.896Z,12.67
2018-01-28T12:37:23.127Z,7.72
2018-01-28T12:39:57.827Z,12.52
2018-01-28T12:42:33.045Z,10.82
2018-01-28T12:45:07.817Z,12.13
2018-01-28T12:47:43.107Z,10.37
2018-01-28T12:50:18.124Z,10.93
2018-01-28T12:52:53.156Z,8.70
2018-01-28T12:55:28.358Z,8.97
2018-01-28T12:58:03.156Z,11.30
2018-01-28T13:00:38.341Z,7.20
2018-01-28T13:03:13.433Z,10.40
2018-01-28T13:05:47.848Z,9.23
2018-01-28T13:08:23.335Z,9.00
2018-01-28T13:10:58.262Z,7.33
2018-01-28T13:13:33.612Z,9.40
2018-01-28T13:16:08.716Z,5.53
2018-01-28T13:18:44.102Z,5.13
2018-01-28T13:21:19.194Z,5.82
2018-01-28T13:23:53.557Z,6.87
2018-01-28T13:26:29.094Z,5.70
2018-01-28T13:29:03.688Z,5.27
2018-01-28T13:31:38.660Z,6.03
2018-01-28T13:34:14.211Z,6.20
2018-01-28T13:36:49.388Z,5.10
2018-01-28T13:39:24.692Z,6.17
2018-01-28T13:41:59.580Z,5.47
2018-01-28T13:44:34.640Z,6.00
2018-01-28T13:47:10.216Z,4.95
2018-01-28T13:49:45.163Z,5.50
2018-01-28T13:52:20.352Z,4.03
2018-01-28T13:54:55.144Z,4.73
2018-01-28T13:57:30.312Z,6.90
2018-01-28T14:00:04.924Z,6.07
2018-01-28T14:02:39.590Z,5.53
2018-01-28T14:05:14.367Z,4.20
2018-01-28T14:07:49.131Z,7.10
2018-01-28T14:10:24.560Z,5.80
2018-01-28T14:12:59.531Z,5.17
2018-01-28T14:15:34.092Z,4.97
2018-01-28T14:18:08.773Z,5.57
2018-01-28T14:20:43.175Z,6.03
2018-01-28T14:23:18.200Z,4.57
2018-01-28T14:25:53.483Z,5.80
2018-01-28T14:28:28.448Z,6.27
2018-01-28T14:31:03.199Z,7.30
2018-01-28T14:33:37.433Z,5.73
2018-01-28T14:36:12.468Z,6.73
2018-01-28T14:38:47.470Z,5.90
2018-01-28T14:41:23.725Z,3.67
2018-01-28T14:43:58.531Z,8.50
2018-01-28T14:46:33.528Z,3.37
2018-01-28T14:49:08.453Z,8.97
2018-01-28T14:51:43.444Z,11.03
2018-01-28T14:54:18.348Z,7.17
2018-01-28T14:56:53.453Z,5.83
2018-01-28T14:59:28.641Z,5.10
2018-01-28T15:02:03.924Z,6.83
2018-01-28T15:04:38.678Z,5.22
2018-01-28T15:07:13.857Z,6.13
2018-01-28T15:09:49.427Z,6.03
2018-01-28T15:12:24.215Z,6.33
2018-01-28T15:14:59.704Z,5.40
2018-01-28T15:17:34.776Z,6.43
2018-01-28T15:20:09.458Z,6.93
2018-01-28T15:22:43.936Z,8.53
2018-01-28T15:25:18.928Z,6.00
2018-01-28T15:27:54.407Z,4.97
2018-01-28T15:30:29.461Z,5.50
2018-01-28T15:33:04.270Z,4.62
2018-01-28T15:35:39.493Z,4.60
2018-01-28T15:38:14.536Z,7.33
2018-01-28T15:40:49.567Z,5.70
2018-01-28T15:43:24.780Z,7.43
2018-01-28T15:45:59.984Z,9.63
2018-01-28T15:48:35.732Z,6.20
2018-01-28T15:51:10.567Z,6.70
2018-01-28T15:53:45.395Z,5.73
2018-01-28T15:56:20.594Z,5.43
2018-01-28T15:58:55.617Z,7.60
2018-01-28T16:01:30.299Z,7.60
2018-01-28T16:04:05.349Z,8.97
2018-01-28T16:06:40.700Z,8.53
2018-01-28T16:09:15.197Z,5.70
2018-01-28T16:11:50.644Z,8.10
2018-01-28T16:14:25.661Z,7.13
2018-01-28T16:17:00.573Z,8.87
2018-01-28T16:19:35.647Z,8.05
2018-01-28T16:22:10.525Z,6.20
2018-01-28T16:24:45.236Z,8.30
2018-01-28T16:27:20.724Z,6.53
2018-01-28T16:29:55.623Z,6.30
2018-01-28T16:32:30.976Z,6.43
2018-01-28T16:35:05.651Z,7.80
2018-01-28T16:37:41.033Z,6.67
2018-01-28T16:40:15.788Z,7.30
2018-01-28T16:42:50.896Z,7.30
2018-01-28T16:45:25.580Z,8.97
2018-01-28T16:48:00.367Z,9.03
2018-01-28T16:50:35.715Z,8.00
2018-01-28T16:53:10.667Z,8.20
2018-01-28T16:55:45.668Z,9.70
2018-01-28T16:58:20.830Z,9.40
2018-01-28T17:00:55.577Z,8.73
2018-01-28T17:03:30.641Z,6.95
2018-01-28T17:06:05.699Z,7.77
2018-01-28T17:08:40.949Z,6.68
2018-01-28T17:11:15.713Z,8.50
2018-01-28T17:13:50.492Z,9.30
2018-01-28T17:16:25.964Z,9.27
2018-01-28T17:19:01.089Z,7.73
2018-01-28T17:21:36.077Z,9.77
2018-01-28T17:24:11.207Z,11.03
2018-01-28T17:26:46.725Z,11.87
2018-01-28T17:29:21.595Z,10.60
2018-01-28T17:31:56.820Z,9.50
2018-01-28T17:34:31.875Z,8.93
2018-01-28T17:37:06.744Z,10.52
2018-01-28T17:39:41.576Z,10.60
2018-01-28T17:42:16.847Z,11.97
2018-01-28T17:44:51.861Z,13.37
2018-01-28T17:47:26.770Z,10.80
2018-01-28T17:50:02.002Z,10.70
2018-01-28T17:52:37.136Z,13.70
2018-01-28T17:55:12.428Z,14.67
2018-01-28T17:57:47.895Z,10.57
2018-01-28T18:00:24.229Z,17.00
2018-01-28T18:02:59.132Z,16.93
2018-01-28T18:05:34.175Z,14.23
2018-01-28T18:08:09.141Z,14.60
2018-01-28T18:10:44.126Z,12.90
2018-01-28T18:13:18.837Z,18.95
2018-01-28T18:15:53.946Z,18.23
2018-01-28T18:18:28.937Z,14.53
2018-01-28T18:21:03.641Z,16.80
2018-01-28T18:23:39.212Z,16.93
2018-01-28T18:26:14.004Z,20.33
2018-01-28T18:28:49.229Z,19.83
2018-01-28T18:31:24.368Z,15.77
2018-01-28T18:33:59.158Z,20.10
2018-01-28T18:36:34.160Z,18.98
2018-01-28T18:39:09.048Z,14.40
2018-01-28T18:41:44.077Z,19.27
2018-01-28T18:44:19.180Z,13.57
2018-01-28T18:46:54.146Z,16.80
2018-01-28T18:49:29.214Z,15.73
2018-01-28T18:52:04.304Z,21.03
2018-01-28T18:54:39.292Z,18.40
2018-01-28T18:57:14.029Z,19.40
2018-01-28T18:59:48.941Z,20.80
2018-01-28T19:02:25.504Z,17.40
2018-01-28T19:05:00.093Z,20.53
2018-01-28T19:07:35.650Z,20.23
2018-01-28T19:10:10.120Z,20.60
2018-01-28T19:12:44.560Z,20.73
2018-01-28T19:15:19.255Z,15.93
2018-01-28T19:17:54.032Z,22.20
2018-01-28T19:20:28.998Z,19.23
2018-01-28T19:23:04.329Z,14.40
2018-01-28T19:25:39.419Z,21.20
2018-01-28T19:28:14.235Z,16.40
2018-01-28T19:30:48.684Z,13.73
2018-01-28T19:33:24.454Z,17.73
2018-01-28T19:35:59.077Z,17.30
2018-01-28T19:38:34.398Z,20.15
2018-01-28T19:41:09.262Z,20.90
2018-01-28T19:43:44.424Z,19.80
2018-01-28T19:46:19.444Z,18.00
2018-01-28T19:48:54.140Z,19.93
2018-01-28T19:51:29.174Z,19.95
2018-01-28T19:54:04.276Z,16.50
2018-01-28T19:56:39.463Z,16.37
2018-01-28T19:59:14.630Z,16.10
2018-01-28T20:01:49.693Z,17.30
2018-01-28T20:04:25.297Z,19.48
2018-01-28T20:07:00.156Z,15.20
2018-01-28T20:09:35.441Z,20.20
2018-01-28T20:12:10.166Z,13.77
2018-01-28T20:14:45.466Z,17.40
2018-01-28T20:17:20.276Z,18.50
2018-01-28T20:19:55.239Z,19.67
2018-01-28T20:22:30.482Z,14.38
2018-01-28T20:25:05.221Z,19.20
2018-01-28T20:27:40.486Z,19.02
2018-01-28T20:30:14.870Z,15.93
2018-01-28T20:32:50.529Z,14.43
2018-01-28T20:35:25.224Z,18.40
2018-01-28T20:38:00.289Z,18.13
2018-01-28T20:40:35.707Z,17.93
2018-01-28T20:43:10.502Z,17.33
2018-01-28T20:45:45.412Z,14.63
2018-01-28T20:48:20.672Z,19.40
2018-01-28T20:50:55.771Z,17.33
2018-01-28T20:53:30.732Z,17.95
2018-01-28T20:56:05.717Z,18.33
2018-01-28T20:58:40.587Z,13.80
2018-01-28T21:01:15.274Z,12.00
2018-01-28T21:03:50.380Z,16.53
2018-01-28T21:06:24.776Z,16.43
2018-01-28T21:09:00.428Z,16.67
2018-01-28T21:11:35.645Z,17.80
2018-01-28T21:14:10.538Z,11.23
2018-01-28T21:16:45.381Z,14.43
2018-01-28T21:19:20.695Z,14.57
2018-01-28T21:21:56.272Z,14.23
2018-01-28T21:24:31.406Z,13.87
2018-01-28T21:27:06.520Z,12.60
2018-01-28T21:29:41.514Z,11.10
2018-01-28T21:32:16.443Z,14.20
2018-01-28T21:34:51.660Z,14.10
2018-01-28T21:37:26.456Z,14.50
2018-01-28T21:40:01.439Z,13.57
2018-01-28T21:42:37.022Z,13.25
2018-01-28T21:45:11.681Z,10.37
2018-01-28T21:47:46.638Z,11.77
2018-01-28T21:50:21.385Z,11.95
2018-01-28T21:52:56.463Z,8.87
2018-01-28T21:55:31.541Z,14.90
2018-01-28T21:58:06.471Z,12.67
2018-01-28T22:00:41.661Z,14.43
2018-01-28T22:03:16.561Z,14.10
2018-01-28T22:05:51.556Z,14.50
2018-01-28T22:08:26.539Z,13.00
2018-01-28T22:11:01.575Z,9.07
2018-01-28T22:13:36.852Z,8.85
2018-01-28T22:16:11.493Z,9.97
2018-01-28T22:18:46.016Z,10.70
2018-01-28T22:21:21.402Z,7.95
2018-01-28T22:23:56.500Z,11.13
2018-01-28T22:26:31.986Z,9.30
2018-01-28T22:29:06.900Z,10.70
2018-01-28T22:31:42.159Z,10.80
2018-01-28T22:34:16.944Z,10.07
2018-01-28T22:36:51.845Z,9.63
2018-01-28T22:39:26.535Z,12.15
2018-01-28T22:42:01.632Z,12.47
2018-01-28T22:44:36.750Z,11.77
2018-01-28T22:47:11.831Z,11.70
2018-01-28T22:49:46.944Z,14.97
2018-01-28T22:52:21.956Z,9.53
2018-01-28T22:54:57.148Z,15.20
2018-01-28T22:57:31.958Z,12.50
2018-01-28T23:00:07.267Z,15.52
2018-01-28T23:02:42.657Z,15.25
2018-01-28T23:05:17.641Z,17.10
2018-01-28T23:07:52.771Z,16.80
2018-01-28T23:10:28.055Z,12.37
2018-01-28T23:13:03.552Z,17.62
2018-01-28T23:15:38.617Z,16.23
2018-01-28T23:18:13.811Z,17.73
2018-01-28T23:20:48.848Z,17.30
2018-01-28T23:23:25.757Z,15.73
2018-01-28T23:26:00.796Z,19.50
2018-01-28T23:28:36.197Z,19.37
2018-01-28T23:31:11.026Z,19.80
2018-01-28T23:33:46.240Z,18.03
2018-01-28T23:36:21.848Z,17.10
2018-01-28T23:38:56.941Z,20.02
2018-01-28T23:41:32.026Z,18.77
2018-01-28T23:44:06.596Z,12.77
2018-01-28T23:46:41.324Z,18.83
2018-01-28T23:49:15.821Z,17.73
2018-01-28T23:51:50.926Z,17.77
2018-01-28T23:54:25.890Z,11.67
2018-01-28T23:57:00.797Z,16.10
2018-01-28T23:59:35.867Z,17.83
